Time;durP1;ratioP1;P1;durP2;ratioP2;P2;SDS_P1;SDS_P2;PMS_P1;PMS_P2;Temp;Humidity;BMP_temperature;BMP_pressure;BME280_temperature;BME280_humidity;BME280_pressure;Samples;Min_cycle;Max_cycle;Signal;HPM_P1;HPM_P2
2023/05/24 00:02:25;;;;;;;13.63;6.82;;;20.00;60.30;;;;;;5036689;28;20029;-66
2023/05/24 00:04:52;;;;;;;10.90;6.10;;;19.90;60.10;;;;;;5037010;28;20072;-66
2023/05/24 00:07:18;;;;;;;11.60;6.10;;;19.90;60.30;;;;;;5019247;28;20171;-66
2023/05/24 00:09:44;;;;;;;14.90;6.28;;;19.90;60.40;;;;;;5036824;28;20404;-66
2023/05/24 00:12:10;;;;;;;13.65;6.45;;;19.90;60.50;;;;;;5037099;28;20025;-66
2023/05/24 00:14:36;;;;;;;13.75;6.53;;;19.90;60.60;;;;;;5036809;28;20021;-68
2023/05/24 00:17:02;;;;;;;11.23;5.93;;;19.90;60.60;;;;;;5036432;28;20057;-66
2023/05/24 00:19:29;;;;;;;12.15;6.75;;;19.80;60.60;;;;;;5036411;28;20033;-66
2023/05/24 00:21:55;;;;;;;11.43;6.32;;;19.80;60.90;;;;;;5036353;28;20036;-66
2023/05/24 00:24:21;;;;;;;9.60;5.68;;;19.70;61.20;;;;;;5036053;28;20064;-66
2023/05/24 00:26:47;;;;;;;10.38;6.10;;;19.70;61.10;;;;;;5035996;28;20088;-68
2023/05/24 00:29:13;;;;;;;9.88;5.43;;;19.70;61.40;;;;;;5036150;28;20021;-67
2023/05/24 00:31:39;;;;;;;10.00;5.32;;;19.70;61.20;;;;;;5036118;28;20033;-67
2023/05/24 00:34:05;;;;;;;10.13;5.05;;;19.60;61.20;;;;;;5036751;28;20022;-68
2023/05/24 00:36:32;;;;;;;9.27;5.13;;;19.60;61.30;;;;;;5035877;28;20055;-66
2023/05/24 00:38:58;;;;;;;9.10;4.95;;;19.50;61.40;;;;;;5036514;28;20026;-68
2023/05/24 00:41:25;;;;;;;10.02;5.60;;;19.50;61.50;;;;;;5035966;28;20087;-67
2023/05/24 00:43:51;;;;;;;13.05;6.13;;;19.50;61.60;;;;;;5036090;28;20037;-67
2023/05/24 00:46:19;;;;;;;10.02;6.07;;;19.50;61.70;;;;;;5035821;28;20101;-67
2023/05/24 00:48:45;;;;;;;10.13;5.82;;;19.40;62.00;;;;;;5036075;28;20150;-67
2023/05/24 00:51:13;;;;;;;12.13;5.80;;;19.40;62.20;;;;;;5036060;28;20025;-67
2023/05/24 00:53:40;;;;;;;9.52;5.40;;;19.30;62.30;;;;;;5035738;28;20027;-66
2023/05/24 00:56:07;;;;;;;9.70;6.00;;;19.30;62.50;;;;;;5035609;28;20052;-67
2023/05/24 00:58:33;;;;;;;9.50;5.70;;;19.20;62.90;;;;;;5036139;28;20473;-67
2023/05/24 01:01:01;;;;;;;9.38;5.68;;;19.20;62.80;;;;;;5035608;28;20040;-67
2023/05/24 01:03:30;;;;;;;8.18;5.50;;;19.10;63.10;;;;;;5035860;28;20026;-67
2023/05/24 01:05:57;;;;;;;10.35;5.50;;;19.10;63.10;;;;;;5036631;28;20451;-67
2023/05/24 01:08:46;;;;;;;9.82;6.32;;;19.10;63.20;;;;;;5037719;28;20022;-66
2023/05/24 01:11:41;;;;;;;10.43;5.28;;;19.10;64.50;;;;;;5037233;28;20040;-66
2023/05/24 01:14:13;;;;;;;8.63;5.38;;;19.00;64.70;;;;;;4977238;28;20101;-66
2023/05/24 01:20:15;;;;;;;;;;;18.90;63.70;;;;;;4918008;29;20036;-66
2023/05/24 01:23:05;;;;;;;9.75;5.70;;;18.90;66.20;;;;;;4917418;29;19959;-66
2023/05/24 01:25:49;;;;;;;10.00;5.88;;;18.80;65.10;;;;;;4916860;29;20409;-66
2023/05/24 01:28:17;;;;;;;12.23;7.38;;;18.80;64.80;;;;;;4917287;29;20103;-66
2023/05/24 01:30:43;;;;;;;13.00;7.38;;;18.70;64.40;;;;;;4917316;29;20044;-67
2023/05/24 01:33:10;;;;;;;19.23;9.45;;;18.70;64.40;;;;;;4917242;29;20080;-67
2023/05/24 01:35:39;;;;;;;30.25;14.43;;;18.80;64.30;;;;;;4901185;29;20403;-66
2023/05/24 01:38:06;;;;;;;49.90;23.02;;;18.80;64.10;;;;;;4917240;29;20047;-66
2023/05/24 01:40:33;;;;;;;66.30;28.70;;;18.80;64.10;;;;;;4917112;29;20064;-66
2023/05/24 01:43:17;;;;;;;55.22;25.88;;;18.80;63.90;;;;;;4917513;29;20067;-66
2023/05/24 01:46:02;;;;;;;38.80;18.92;;;18.90;63.70;;;;;;4917672;29;20239;-66
2023/05/24 01:48:47;;;;;;;29.67;15.65;;;18.90;64.00;;;;;;4918369;29;20473;-66
2023/05/24 01:51:17;;;;;;;26.60;12.38;;;18.90;63.60;;;;;;4921701;29;20060;-66
2023/05/24 01:53:49;;;;;;;17.33;9.88;;;18.90;63.50;;;;;;4920999;29;20058;-66
2023/05/24 01:56:18;;;;;;;15.50;9.15;;;18.90;63.40;;;;;;4953719;28;20063;-66
2023/05/24 01:58:46;;;;;;;16.35;9.05;;;18.90;63.50;;;;;;5020969;28;20033;-67
2023/05/24 02:01:13;;;;;;;22.08;10.63;;;18.90;63.50;;;;;;5038954;28;20067;-67
2023/05/24 02:03:39;;;;;;;24.50;11.82;;;18.80;63.60;;;;;;5039258;28;20025;-66
2023/05/24 02:06:06;;;;;;;22.88;11.60;;;18.80;63.90;;;;;;5038796;28;20439;-66
2023/05/24 02:08:33;;;;;;;18.52;9.70;;;18.70;64.00;;;;;;5038760;28;20121;-67
2023/05/24 02:10:59;;;;;;;17.92;10.98;;;18.70;64.00;;;;;;5038801;28;20026;-66
2023/05/24 02:13:25;;;;;;;18.33;9.90;;;18.70;64.00;;;;;;5039043;28;20028;-65
2023/05/24 02:15:52;;;;;;;16.90;8.90;;;18.60;64.30;;;;;;5038680;28;20030;-67
2023/05/24 02:18:19;;;;;;;14.13;8.43;;;18.50;64.60;;;;;;5038901;28;20040;-66
2023/05/24 02:20:45;;;;;;;15.93;8.20;;;18.50;64.70;;;;;;5039124;28;20128;-66
2023/05/24 02:23:11;;;;;;;16.33;8.88;;;18.40;64.70;;;;;;5038556;28;20057;-67
2023/05/24 02:25:37;;;;;;;16.48;8.48;;;18.40;64.80;;;;;;5038502;28;20080;-66
2023/05/24 02:28:03;;;;;;;12.20;7.63;;;18.40;65.00;;;;;;5038720;28;20443;-67
2023/05/24 02:30:29;;;;;;;12.90;8.07;;;18.40;65.10;;;;;;5038429;28;20354;-68
2023/05/24 02:32:56;;;;;;;15.00;7.95;;;18.30;65.30;;;;;;5038399;28;20018;-66
2023/05/24 02:35:22;;;;;;;11.80;7.53;;;18.30;65.40;;;;;;5038555;28;20053;-66
2023/05/24 02:37:47;;;;;;;11.93;6.88;;;18.30;65.50;;;;;;5038323;28;20103;-68
2023/05/24 02:40:13;;;;;;;13.23;7.43;;;18.20;65.60;;;;;;5038275;28;20029;-65
2023/05/24 02:42:39;;;;;;;12.32;7.07;;;18.20;65.70;;;;;;5038484;28;20105;-67
2023/05/24 02:45:06;;;;;;;12.88;7.40;;;18.20;65.60;;;;;;5038263;28;20049;-66
2023/05/24 02:47:32;;;;;;;14.90;8.52;;;18.20;65.70;;;;;;5035770;28;20017;-67
2023/05/24 02:49:58;;;;;;;16.30;9.40;;;18.10;65.80;;;;;;5038341;28;20495;-65
2023/05/24 02:52:24;;;;;;;16.92;8.85;;;18.10;65.80;;;;;;5038317;28;20068;-66
2023/05/24 02:54:49;;;;;;;13.82;8.48;;;18.10;65.80;;;;;;5038429;28;20029;-65
2023/05/24 02:57:16;;;;;;;14.63;8.55;;;18.10;66.00;;;;;;5038178;28;20052;-66
2023/05/24 02:59:43;;;;;;;15.82;9.30;;;18.10;66.20;;;;;;5038130;28;20029;-66
2023/05/24 03:02:12;;;;;;;19.55;10.07;;;18.00;66.50;;;;;;5037864;28;20083;-69
2023/05/24 03:04:38;;;;;;;15.77;8.70;;;18.00;66.40;;;;;;5037622;28;20447;-67
2023/05/24 03:07:04;;;;;;;14.20;7.70;;;18.00;66.10;;;;;;5037764;28;20022;-66
2023/05/24 03:09:30;;;;;;;10.23;7.00;;;18.00;66.10;;;;;;5037956;28;20136;-66
2023/05/24 03:11:56;;;;;;;11.07;6.63;;;18.00;65.90;;;;;;5038166;28;20444;-67
2023/05/24 03:14:23;;;;;;;14.48;6.65;;;18.00;65.90;;;;;;5037778;28;20033;-66
2023/05/24 03:16:50;;;;;;;11.27;6.47;;;18.00;65.90;;;;;;5037490;28;20026;-66
2023/05/24 03:19:16;;;;;;;11.38;6.03;;;18.10;65.80;;;;;;5038022;28;20431;-66
2023/05/24 03:21:42;;;;;;;9.30;6.20;;;18.10;65.80;;;;;;5037721;28;20155;-67
2023/05/24 03:24:08;;;;;;;10.70;6.22;;;18.10;65.90;;;;;;5037811;28;20033;-66
2023/05/24 03:26:34;;;;;;;9.52;5.95;;;18.00;66.00;;;;;;5037144;28;20373;-66
2023/05/24 03:29:00;;;;;;;9.18;6.07;;;18.10;66.00;;;;;;5036340;28;20021;-65
2023/05/24 03:31:26;;;;;;;8.85;6.22;;;18.00;66.20;;;;;;5037331;28;20025;-66
2023/05/24 03:33:52;;;;;;;10.35;6.68;;;18.00;66.00;;;;;;5037249;28;20332;-67
2023/05/24 03:36:20;;;;;;;10.07;6.45;;;18.00;66.30;;;;;;5037084;28;20049;-67
2023/05/24 03:38:45;;;;;;;9.85;6.10;;;18.00;66.50;;;;;;5037698;28;20095;-67
2023/05/24 03:41:11;;;;;;;8.90;6.00;;;18.00;66.20;;;;;;5037142;28;20438;-67
2023/05/24 03:43:37;;;;;;;9.57;6.53;;;18.00;66.20;;;;;;5037333;28;20324;-66
2023/05/24 03:46:03;;;;;;;11.93;6.90;;;18.00;66.20;;;;;;5036887;28;20049;-66
2023/05/24 03:48:30;;;;;;;11.98;6.22;;;18.00;66.00;;;;;;5035982;28;20355;-66
2023/05/24 03:50:55;;;;;;;10.65;5.93;;;18.00;65.90;;;;;;5037182;28;20025;-67
2023/05/24 03:53:21;;;;;;;12.75;6.63;;;18.00;65.70;;;;;;5037355;28;20026;-67
2023/05/24 03:55:48;;;;;;;10.55;6.40;;;18.10;66.00;;;;;;5036990;28;20083;-67
2023/05/24 03:58:14;;;;;;;12.02;6.50;;;18.10;65.80;;;;;;5036801;28;20037;-67
2023/05/24 04:00:40;;;;;;;11.02;7.38;;;18.20;66.20;;;;;;5035786;28;20017;-66
2023/05/24 04:03:06;;;;;;;13.15;7.53;;;18.10;66.30;;;;;;5036682;28;20037;-66
2023/05/24 04:05:32;;;;;;;10.43;6.47;;;18.10;66.50;;;;;;5036474;28;20026;-67
2023/05/24 04:07:58;;;;;;;10.52;6.47;;;18.10;66.20;;;;;;5036881;28;20029;-66
2023/05/24 04:10:24;;;;;;;11.60;6.90;;;18.10;66.40;;;;;;5036522;28;20331;-67
2023/05/24 04:12:50;;;;;;;11.48;6.60;;;18.20;66.50;;;;;;5035814;28;20033;-66
2023/05/24 04:15:16;;;;;;;13.30;6.30;;;18.20;66.50;;;;;;5036435;28;20029;-66
2023/05/24 04:17:44;;;;;;;11.02;6.00;;;18.20;66.40;;;;;;5036938;28;20033;-67
2023/05/24 04:20:11;;;;;;;8.55;5.97;;;18.20;66.40;;;;;;5036618;28;20339;-67
2023/05/24 04:22:37;;;;;;;9.90;6.00;;;18.20;66.20;;;;;;5036882;28;20033;-65
2023/05/24 04:25:03;;;;;;;10.45;5.82;;;18.30;66.10;;;;;;5036076;28;20048;-67
2023/05/24 04:27:30;;;;;;;8.70;5.80;;;18.40;66.10;;;;;;5036528;28;20025;-66
2023/05/24 04:29:56;;;;;;;11.07;6.15;;;18.40;66.00;;;;;;5036206;28;20014;-67
2023/05/24 04:32:22;;;;;;;9.45;6.30;;;18.40;66.30;;;;;;5036644;28;20039;-66
2023/05/24 04:34:49;;;;;;;10.68;6.32;;;18.40;66.40;;;;;;5036294;28;20021;-65
2023/05/24 04:37:18;;;;;;;9.48;6.38;;;18.50;66.30;;;;;;5035995;28;20026;-67
2023/05/24 04:39:44;;;;;;;10.50;6.30;;;18.50;66.20;;;;;;5036014;28;20060;-65
2023/05/24 04:42:11;;;;;;;9.70;6.15;;;18.60;66.40;;;;;;5036185;28;20029;-67
2023/05/24 04:44:39;;;;;;;13.10;7.55;;;18.70;66.10;;;;;;5035741;28;20030;-65
2023/05/24 04:47:06;;;;;;;10.52;7.15;;;18.90;66.10;;;;;;5035857;28;20033;-67
2023/05/24 04:49:32;;;;;;;11.75;7.68;;;19.30;65.90;;;;;;5035755;28;20029;-65
2023/05/24 04:51:58;;;;;;;12.27;7.03;;;19.70;65.00;;;;;;5036332;28;20353;-66
2023/05/24 04:54:24;;;;;;;11.02;7.22;;;20.00;64.30;;;;;;5035842;28;20021;-66
2023/05/24 04:56:50;;;;;;;11.23;6.75;;;20.30;63.80;;;;;;5035595;28;20037;-67
2023/05/24 04:59:16;;;;;;;10.05;6.45;;;20.40;63.40;;;;;;5035889;28;20450;-67
2023/05/24 05:01:42;;;;;;;12.30;7.10;;;20.40;63.00;;;;;;5036156;28;20033;-65
2023/05/24 05:04:08;;;;;;;10.35;6.80;;;20.50;62.80;;;;;;5035707;28;20455;-65
2023/05/24 05:06:37;;;;;;;21.92;7.60;;;20.50;62.40;;;;;;5035510;28;20060;-65
2023/05/24 05:09:08;;;;;;;12.63;7.13;;;20.50;62.40;;;;;;5034514;28;20021;-63
2023/05/24 05:11:34;;;;;;;11.40;7.03;;;20.60;62.10;;;;;;5035425;28;20447;-67
2023/05/24 05:14:00;;;;;;;13.65;7.40;;;20.60;62.10;;;;;;5035460;28;20061;-65
2023/05/24 05:16:26;;;;;;;11.90;7.38;;;20.70;61.80;;;;;;5035298;28;20068;-66
2023/05/24 05:18:52;;;;;;;9.68;6.80;;;20.80;61.90;;;;;;5035583;28;20025;-67
2023/05/24 05:21:18;;;;;;;9.40;6.55;;;20.80;61.80;;;;;;5035600;28;20386;-68
2023/05/24 05:23:44;;;;;;;11.38;7.40;;;20.90;61.70;;;;;;5035544;28;20064;-65
2023/05/24 05:26:11;;;;;;;13.20;6.97;;;21.00;61.70;;;;;;5034924;28;20077;-66
2023/05/24 05:28:37;;;;;;;12.32;6.53;;;21.10;61.60;;;;;;5035526;28;20036;-67
2023/05/24 05:31:03;;;;;;;10.15;6.65;;;21.20;61.30;;;;;;5035436;28;20025;-67
2023/05/24 05:33:32;;;;;;;12.88;6.32;;;21.30;60.90;;;;;;5035171;28;20451;-66
2023/05/24 05:35:58;;;;;;;9.73;6.20;;;21.40;60.80;;;;;;5034874;28;20029;-66
2023/05/24 05:38:24;;;;;;;8.43;5.55;;;21.50;60.60;;;;;;5053764;28;20025;-66
2023/05/24 05:40:50;;;;;;;10.55;6.57;;;21.60;60.40;;;;;;5054910;28;20078;-66
2023/05/24 05:43:16;;;;;;;8.85;5.80;;;21.90;60.20;;;;;;5055236;28;20025;-66
2023/05/24 05:45:42;;;;;;;8.63;5.47;;;22.40;59.90;;;;;;5054949;28;20101;-66
2023/05/24 05:48:07;;;;;;;7.65;4.93;;;22.90;59.00;;;;;;5054330;28;20024;-66
2023/05/24 05:50:33;;;;;;;9.93;5.60;;;23.20;58.20;;;;;;5055188;28;20021;-66
2023/05/24 05:52:59;;;;;;;9.98;5.90;;;23.40;57.90;;;;;;5036512;28;20448;-67
2023/05/24 05:55:25;;;;;;;9.45;6.20;;;23.70;57.20;;;;;;5034772;28;20108;-67
2023/05/24 05:57:51;;;;;;;8.93;5.60;;;24.00;56.60;;;;;;5034827;28;20101;-66
2023/05/24 06:00:17;;;;;;;8.05;5.32;;;24.20;55.90;;;;;;5034829;28;20090;-68
2023/05/24 06:02:43;;;;;;;7.78;5.45;;;24.40;55.30;;;;;;5035038;28;20021;-66
2023/05/24 06:05:09;;;;;;;12.77;6.53;;;24.80;55.20;;;;;;5034617;28;20029;-65
2023/05/24 06:07:36;;;;;;;9.40;5.35;;;25.50;54.10;;;;;;5035083;28;20022;-65
2023/05/24 06:10:02;;;;;;;7.30;5.13;;;26.50;52.80;;;;;;5034748;28;20029;-65
2023/05/24 06:12:28;;;;;;;6.75;4.85;;;27.60;51.30;;;;;;5035016;28;20101;-65
2023/05/24 06:14:56;;;;;;;9.93;6.57;;;28.90;49.40;;;;;;5034593;28;20496;-66
2023/05/24 06:17:23;;;;;;;10.23;6.63;;;30.20;47.40;;;;;;5039480;28;20052;-64
2023/05/24 06:19:52;;;;;;;10.13;5.63;;;31.40;45.40;;;;;;5053592;28;20131;-66
2023/05/24 06:22:18;;;;;;;6.93;5.00;;;32.30;43.60;;;;;;5053311;28;20043;-66
2023/05/24 06:24:45;;;;;;;7.20;5.10;;;33.20;41.90;;;;;;5053648;28;20091;-66
2023/05/24 06:27:10;;;;;;;6.65;4.35;;;34.00;40.70;;;;;;5054321;28;20041;-65
2023/05/24 06:29:37;;;;;;;5.55;4.45;;;34.70;39.40;;;;;;5054685;28;20017;-67
2023/05/24 06:32:03;;;;;;;6.40;4.55;;;35.20;38.00;;;;;;5054396;28;20107;-67
2023/05/24 06:34:29;;;;;;;7.78;4.72;;;35.60;36.70;;;;;;5055080;28;20092;-66
2023/05/24 06:36:55;;;;;;;7.57;4.45;;;36.00;35.70;;;;;;5058235;28;20124;-65
2023/05/24 06:39:24;;;;;;;7.45;4.43;;;36.40;34.90;;;;;;5058101;28;20075;-64
2023/05/24 06:41:50;;;;;;;6.22;4.07;;;36.60;34.00;;;;;;5058329;28;20036;-64
2023/05/24 06:44:16;;;;;;;9.00;4.45;;;36.50;33.70;;;;;;5058132;28;20037;-65
2023/05/24 06:46:42;;;;;;;7.90;4.20;;;36.00;34.10;;;;;;5058034;28;20097;-63
2023/05/24 06:49:08;;;;;;;9.18;4.90;;;35.30;34.80;;;;;;5058434;28;20061;-63
2023/05/24 06:51:34;;;;;;;8.38;5.03;;;34.40;35.50;;;;;;5058349;28;20457;-66
2023/05/24 06:54:00;;;;;;;9.73;5.10;;;33.40;36.60;;;;;;5056696;28;20350;-65
2023/05/24 06:56:27;;;;;;;8.82;5.57;;;32.50;37.70;;;;;;5057723;28;20029;-64
2023/05/24 06:58:54;;;;;;;10.70;6.30;;;31.90;38.70;;;;;;5057517;28;20029;-64
2023/05/24 07:01:21;;;;;;;8.85;5.60;;;31.10;39.40;;;;;;5057486;28;20353;-66
2023/05/24 07:03:47;;;;;;;7.53;5.10;;;30.60;40.50;;;;;;5048837;28;20043;-66
2023/05/24 07:06:15;;;;;;;7.95;5.20;;;30.30;41.20;;;;;;5037618;28;20044;-65
2023/05/24 07:08:41;;;;;;;8.85;5.68;;;30.00;41.80;;;;;;5037817;28;20029;-67
2023/05/24 07:11:08;;;;;;;11.48;5.32;;;29.70;42.00;;;;;;5037814;28;20125;-64
2023/05/24 07:13:34;;;;;;;8.50;5.50;;;29.40;42.40;;;;;;5038000;28;20100;-65
2023/05/24 07:16:00;;;;;;;8.77;5.68;;;29.10;42.60;;;;;;5037711;28;20446;-66
2023/05/24 07:18:26;;;;;;;8.52;5.15;;;28.80;43.00;;;;;;5041751;28;20056;-66
2023/05/24 07:20:53;;;;;;;10.63;5.53;;;28.60;43.60;;;;;;5042549;28;20033;-65
2023/05/24 07:23:19;;;;;;;7.55;5.13;;;28.50;43.90;;;;;;5036289;28;20358;-66
2023/05/24 07:25:45;;;;;;;9.65;4.57;;;28.50;43.80;;;;;;5036098;28;20474;-66
2023/05/24 07:28:14;;;;;;;9.95;5.60;;;28.40;44.10;;;;;;5037141;28;20036;-66
2023/05/24 07:30:40;;;;;;;5.30;3.92;;;28.30;44.20;;;;;;5037833;28;20060;-65
2023/05/24 07:33:07;;;;;;;6.15;4.13;;;28.20;44.40;;;;;;5037434;28;20409;-68
2023/05/24 07:35:33;;;;;;;8.00;4.68;;;28.10;44.30;;;;;;5037306;28;20107;-65
2023/05/24 07:37:59;;;;;;;10.82;5.38;;;28.10;44.40;;;;;;5039020;28;20438;-64
2023/05/24 07:40:25;;;;;;;12.45;5.80;;;27.90;44.20;;;;;;5056889;28;20364;-66
2023/05/24 07:42:51;;;;;;;9.23;5.43;;;27.70;45.00;;;;;;5057036;28;20029;-65
2023/05/24 07:45:17;;;;;;;7.88;5.25;;;27.60;45.10;;;;;;5056538;28;20029;-64
2023/05/24 07:47:43;;;;;;;10.95;5.50;;;27.60;45.40;;;;;;5055820;28;20078;-65
2023/05/24 07:50:10;;;;;;;8.60;5.00;;;27.60;45.50;;;;;;5043749;28;20381;-65
2023/05/24 07:52:37;;;;;;;8.25;5.03;;;27.60;45.90;;;;;;5036720;28;20021;-65
2023/05/24 07:55:05;;;;;;;12.18;6.72;;;27.70;45.90;;;;;;5036809;28;20317;-65
2023/05/24 07:57:31;;;;;;;10.65;6.38;;;27.70;45.30;;;;;;5036604;28;20022;-65
2023/05/24 07:59:57;;;;;;;12.63;7.38;;;27.70;45.20;;;;;;5036930;28;20021;-66
2023/05/24 08:02:23;;;;;;;12.43;7.88;;;27.40;45.30;;;;;;5036538;28;20105;-66
2023/05/24 08:04:49;;;;;;;12.27;7.90;;;27.10;46.00;;;;;;5036625;28;20049;-66
2023/05/24 08:07:16;;;;;;;12.65;8.50;;;26.90;46.50;;;;;;5036481;28;20049;-66
2023/05/24 08:09:42;;;;;;;11.85;8.07;;;26.80;47.10;;;;;;5036752;28;20044;-65
2023/05/24 08:14:36;;;;;;;12.55;8.38;;;26.60;47.50;;;;;;5036807;28;20442;-66
2023/05/24 08:17:02;;;;;;;11.77;7.43;;;26.50;48.00;;;;;;5036431;28;20029;-66
2023/05/24 08:19:34;;;;;;;13.65;9.18;;;26.60;48.00;;;;;;5036339;28;20035;-66
2023/05/24 08:22:03;;;;;;;10.88;8.25;;;26.50;47.70;;;;;;5036856;28;20067;-66
2023/05/24 08:24:32;;;;;;;11.15;7.70;;;26.40;47.80;;;;;;5036300;28;20370;-66
2023/05/24 08:26:58;;;;;;;11.93;8.68;;;26.40;48.30;;;;;;5036005;28;20116;-66
2023/05/24 08:29:24;;;;;;;11.98;7.82;;;26.40;48.30;;;;;;5037108;28;20104;-66
2023/05/24 08:31:50;;;;;;;12.40;7.80;;;26.40;48.40;;;;;;5036007;28;20342;-66
2023/05/24 08:34:16;;;;;;;11.80;8.18;;;26.40;48.70;;;;;;5035687;28;20104;-67
2023/05/24 08:36:43;;;;;;;10.95;8.07;;;26.50;48.60;;;;;;5034906;28;20068;-66
2023/05/24 08:39:09;;;;;;;11.15;7.43;;;26.50;48.10;;;;;;5035068;28;20030;-66
2023/05/24 08:41:38;;;;;;;13.32;7.93;;;26.50;48.70;;;;;;5036170;28;20029;-66
2023/05/24 08:44:06;;;;;;;11.43;7.60;;;26.50;48.60;;;;;;5036287;28;20033;-66
2023/05/24 08:46:36;;;;;;;12.45;8.02;;;26.60;48.30;;;;;;5035847;28;20071;-67
2023/05/24 08:49:02;;;;;;;13.50;8.07;;;26.60;48.20;;;;;;5035819;28;20022;-67
2023/05/24 08:51:29;;;;;;;12.10;7.50;;;26.50;48.60;;;;;;5035797;28;20079;-67
2023/05/24 08:53:57;;;;;;;15.63;7.97;;;26.60;48.70;;;;;;5035971;28;20477;-66
2023/05/24 08:56:25;;;;;;;11.07;7.53;;;26.40;48.10;;;;;;5035546;28;20040;-66
2023/05/24 08:58:52;;;;;;;11.30;7.35;;;26.30;48.90;;;;;;5035225;28;20108;-66
2023/05/24 09:01:19;;;;;;;10.52;7.15;;;26.30;49.00;;;;;;5035833;28;20029;-66
2023/05/24 09:03:46;;;;;;;10.20;6.53;;;26.30;48.30;;;;;;5035752;28;20030;-66
2023/05/24 09:06:16;;;;;;;9.95;6.82;;;26.30;48.60;;;;;;5035376;28;20455;-67
2023/05/24 09:08:44;;;;;;;10.68;7.32;;;26.30;48.80;;;;;;5035705;28;20025;-66
2023/05/24 09:11:10;;;;;;;9.77;7.10;;;26.50;48.70;;;;;;5035681;28;20044;-67
2023/05/24 09:13:37;;;;;;;11.65;7.47;;;26.60;48.40;;;;;;5036207;28;20425;-66
2023/05/24 09:16:05;;;;;;;9.02;6.38;;;26.60;48.30;;;;;;5035222;28;20029;-66
2023/05/24 09:18:31;;;;;;;9.90;6.43;;;26.70;48.40;;;;;;5035632;28;20025;-66
2023/05/24 09:20:57;;;;;;;11.80;6.88;;;26.90;48.20;;;;;;5035340;28;20509;-66
2023/05/24 09:23:26;;;;;;;9.98;6.97;;;26.90;47.70;;;;;;5035190;28;20060;-66
2023/05/24 09:25:52;;;;;;;10.57;6.97;;;26.90;47.90;;;;;;5033902;28;20521;-67
2023/05/24 09:28:20;;;;;;;9.38;6.90;;;27.00;48.10;;;;;;5035483;28;20032;-66
2023/05/24 09:30:58;;;;;;;9.13;6.40;;;27.00;48.20;;;;;;5035139;28;20036;-67
2023/05/24 09:33:29;;;;;;;10.90;7.20;;;27.20;47.80;;;;;;5035436;28;20354;-66
2023/05/24 09:36:00;;;;;;;9.98;7.13;;;27.30;47.60;;;;;;5035120;28;20492;-67
2023/05/24 09:38:27;;;;;;;10.93;7.30;;;27.40;47.40;;;;;;5035410;28;20041;-66
2023/05/24 09:41:07;;;;;;;11.30;6.45;;;27.40;47.10;;;;;;5035352;28;20037;-66
2023/05/24 09:43:35;;;;;;;9.27;6.70;;;27.30;47.60;;;;;;5035351;28;20041;-68
2023/05/24 09:46:04;;;;;;;9.68;6.80;;;27.40;47.90;;;;;;5034835;28;20108;-66
2023/05/24 09:48:30;;;;;;;11.68;7.90;;;27.30;48.00;;;;;;5034990;28;20025;-67
2023/05/24 09:51:10;;;;;;;8.93;6.35;;;27.00;48.20;;;;;;5034998;28;20022;-67
2023/05/24 09:53:37;;;;;;;11.18;7.05;;;26.80;49.10;;;;;;5035229;28;20029;-65
2023/05/24 09:56:04;;;;;;;10.85;7.55;;;26.70;49.40;;;;;;5035043;28;20037;-67
2023/05/24 09:58:32;;;;;;;9.48;6.38;;;26.60;49.60;;;;;;5034898;28;20044;-67
2023/05/24 10:01:06;;;;;;;9.27;6.43;;;26.70;49.70;;;;;;5035101;28;20087;-66
2023/05/24 10:03:32;;;;;;;10.55;7.22;;;26.90;49.60;;;;;;5034835;28;20451;-66
2023/05/24 10:06:00;;;;;;;11.70;7.43;;;27.10;49.00;;;;;;5034746;28;20029;-67
2023/05/24 10:08:26;;;;;;;11.02;7.03;;;27.20;48.80;;;;;;5034779;28;20469;-66
2023/05/24 10:10:54;;;;;;;11.38;6.30;;;27.30;48.50;;;;;;5037816;28;20032;-66
2023/05/24 10:13:22;;;;;;;12.05;7.25;;;27.40;48.60;;;;;;5039433;28;20029;-67
2023/05/24 10:15:48;;;;;;;10.50;6.53;;;27.30;47.60;;;;;;5038613;28;20056;-67
2023/05/24 10:18:14;;;;;;;10.05;6.65;;;27.10;47.90;;;;;;5039186;28;20057;-66
2023/05/24 10:20:40;;;;;;;8.38;6.03;;;27.00;47.70;;;;;;5038867;28;20108;-65
2023/05/24 10:23:09;;;;;;;9.73;6.80;;;26.90;48.20;;;;;;5038851;28;20048;-67
2023/05/24 10:25:39;;;;;;;10.23;6.68;;;26.90;48.60;;;;;;5038139;28;20096;-66
2023/05/24 10:28:12;;;;;;;7.95;5.95;;;26.90;48.60;;;;;;5039051;28;20087;-67
2023/05/24 10:30:40;;;;;;;9.43;6.18;;;27.00;48.50;;;;;;5038796;28;20100;-68
2023/05/24 10:33:08;;;;;;;10.88;7.10;;;27.10;48.70;;;;;;5038914;28;20052;-67
2023/05/24 10:35:36;;;;;;;9.90;6.47;;;27.00;47.80;;;;;;5038201;28;20049;-66
2023/05/24 10:38:06;;;;;;;8.98;5.63;;;26.90;48.10;;;;;;5038225;28;20117;-65
2023/05/24 10:43:57;;;;;;;8.93;5.82;;;26.90;48.00;;;;;;5038540;28;20036;-67
2023/05/24 10:46:24;;;;;;;10.88;5.72;;;26.90;48.40;;;;;;5038005;28;20115;-66
2023/05/24 10:49:00;;;;;;;7.82;5.82;;;27.00;48.80;;;;;;5038345;28;20030;-68
2023/05/24 10:51:38;;;;;;;8.00;5.10;;;27.00;49.00;;;;;;5038309;28;20017;-67
2023/05/24 10:54:20;;;;;;;11.10;6.43;;;27.10;48.00;;;;;;5037978;28;20021;-66
2023/05/24 10:56:48;;;;;;;9.20;5.70;;;27.20;47.60;;;;;;5037900;28;20354;-67
2023/05/24 10:59:26;;;;;;;7.70;5.75;;;27.20;48.00;;;;;;5038169;28;20022;-66
2023/05/24 11:01:59;;;;;;;9.98;5.80;;;27.30;47.60;;;;;;5037840;28;20021;-67
2023/05/24 11:04:26;;;;;;;;;;;27.20;47.00;;;;;;5038274;28;20037;-67
2023/05/24 11:07:00;;;;;;;8.95;5.68;;;27.10;46.90;;;;;;5037740;28;19908;-67
2023/05/24 11:09:26;;;;;;;11.15;6.43;;;27.00;47.60;;;;;;5037727;28;20030;-67
2023/05/24 11:12:06;;;;;;;9.07;6.57;;;27.00;48.20;;;;;;5037915;28;20029;-67
2023/05/24 11:14:36;;;;;;;11.77;6.20;;;27.00;48.80;;;;;;5037868;28;20044;-66
2023/05/24 11:17:03;;;;;;;9.18;6.60;;;27.00;48.70;;;;;;5037569;28;20033;-68
2023/05/24 11:19:37;;;;;;;8.63;6.18;;;27.00;48.90;;;;;;5038044;28;20061;-66
2023/05/24 11:22:07;;;;;;;10.98;7.28;;;27.00;49.20;;;;;;5037834;28;20029;-67
2023/05/24 11:24:35;;;;;;;10.73;6.50;;;26.90;49.10;;;;;;5037322;28;20030;-67
2023/05/24 11:27:02;;;;;;;9.73;6.90;;;26.90;49.50;;;;;;5037241;28;20065;-65
2023/05/24 11:29:29;;;;;;;10.23;7.13;;;26.80;49.50;;;;;;5036355;28;20021;-66
2023/05/24 11:32:03;;;;;;;15.52;7.30;;;26.70;49.60;;;;;;5037389;28;20029;-66
2023/05/24 11:34:30;;;;;;;9.48;6.50;;;26.70;49.90;;;;;;5036275;28;20029;-65
2023/05/24 11:36:59;;;;;;;9.80;7.20;;;26.70;50.30;;;;;;5036582;28;20040;-66
2023/05/24 11:39:31;;;;;;;11.25;6.75;;;26.70;50.40;;;;;;5036209;28;20029;-66
2023/05/24 11:41:58;;;;;;;10.90;7.03;;;26.80;50.30;;;;;;5036213;28;20336;-66
2023/05/24 11:44:26;;;;;;;11.30;6.45;;;26.80;50.30;;;;;;5037212;28;20029;-66
2023/05/24 11:46:59;;;;;;;8.35;6.22;;;26.70;50.10;;;;;;5037333;28;20038;-66
2023/05/24 11:49:26;;;;;;;9.50;6.35;;;26.70;50.00;;;;;;5037274;28;20064;-67
2023/05/24 11:51:55;;;;;;;9.77;6.75;;;26.90;50.20;;;;;;5037205;28;20029;-67
2023/05/24 11:54:22;;;;;;;11.05;6.47;;;26.90;50.30;;;;;;5036795;28;20433;-66
2023/05/24 11:56:48;;;;;;;10.10;6.78;;;26.90;49.90;;;;;;5037132;28;20035;-66
2023/05/24 11:59:19;;;;;;;8.38;6.20;;;26.70;49.80;;;;;;5037273;28;20060;-65
2023/05/24 12:01:45;;;;;;;8.63;6.32;;;26.70;50.10;;;;;;5037034;28;20021;-68
2023/05/24 12:04:11;;;;;;;9.63;7.05;;;26.70;49.90;;;;;;5037064;28;20025;-66
2023/05/24 12:06:42;;;;;;;9.60;7.40;;;26.80;49.60;;;;;;5037703;28;20021;-67
2023/05/24 12:09:12;;;;;;;10.05;6.95;;;26.80;49.70;;;;;;5038718;28;20029;-66
2023/05/24 12:11:42;;;;;;;10.80;7.32;;;26.80;49.90;;;;;;5038708;28;20075;-67
2023/05/24 12:14:31;;;;;;;9.77;6.60;;;26.70;50.20;;;;;;5037994;28;20047;-66
2023/05/24 12:16:58;;;;;;;10.68;6.30;;;26.60;50.00;;;;;;5036975;28;20378;-66
2023/05/24 12:19:28;;;;;;;8.70;6.35;;;26.50;50.40;;;;;;5036453;28;20040;-66
2023/05/24 12:21:56;;;;;;;9.65;6.22;;;26.60;50.70;;;;;;5036639;28;20025;-66
2023/05/24 12:24:23;;;;;;;9.95;6.78;;;26.60;50.50;;;;;;5036176;28;20451;-65
2023/05/24 12:26:49;;;;;;;10.52;6.90;;;26.70;50.20;;;;;;5034569;28;20128;-66
2023/05/24 12:29:16;;;;;;;10.27;6.93;;;26.90;50.40;;;;;;5035596;28;20059;-66
2023/05/24 12:31:46;;;;;;;10.27;6.82;;;26.90;49.90;;;;;;5035002;28;20040;-67
2023/05/24 12:34:20;;;;;;;8.30;5.72;;;26.90;49.60;;;;;;5034842;28;20021;-66
2023/05/24 12:36:48;;;;;;;9.05;6.40;;;26.90;49.50;;;;;;5035811;28;20339;-66
2023/05/24 12:39:29;;;;;;;9.80;6.22;;;27.00;49.60;;;;;;5035207;28;20028;-65
2023/05/24 12:41:56;;;;;;;8.35;6.10;;;27.10;49.30;;;;;;5035456;28;20022;-67
2023/05/24 12:44:27;;;;;;;8.32;6.68;;;27.20;49.10;;;;;;5033993;28;20018;-66
2023/05/24 12:46:54;;;;;;;11.48;6.55;;;27.20;48.80;;;;;;5035362;28;20069;-66
2023/05/24 12:49:24;;;;;;;8.32;6.10;;;27.30;48.70;;;;;;5035325;28;20021;-66
2023/05/24 12:51:52;;;;;;;8.27;5.75;;;27.30;48.30;;;;;;5035260;28;20453;-67
2023/05/24 12:54:21;;;;;;;9.68;6.40;;;27.40;48.30;;;;;;5035416;28;20049;-66